sensor_id;sensor_type;location;lat;lon;timestamp;temperature;humidity
26254;DHT22;53339;51.378;0.094;2024-03-02T00:01:26;4.00;90.30
26254;DHT22;53339;51.378;0.094;2024-03-02T00:03:54;4.10;90.30
26254;DHT22;53339;51.378;0.094;2024-03-02T00:06:22;4.10;90.30
26254;DHT22;53339;51.378;0.094;2024-03-02T00:08:49;4.00;90.30
26254;DHT22;53339;51.378;0.094;2024-03-02T00:11:17;4.00;90.30
26254;DHT22;53339;51.378;0.094;2024-03-02T00:13:46;4.00;90.30
26254;DHT22;53339;51.378;0.094;2024-03-02T00:16:14;3.90;90.20
26254;DHT22;53339;51.378;0.094;2024-03-02T00:18:43;3.90;90.10
26254;DHT22;53339;51.378;0.094;2024-03-02T00:21:11;3.90;90.10
26254;DHT22;53339;51.378;0.094;2024-03-02T00:23:42;3.80;90.00
26254;DHT22;53339;51.378;0.094;2024-03-02T00:26:11;3.80;90.00
26254;DHT22;53339;51.378;0.094;2024-03-02T00:28:40;3.80;90.10
26254;DHT22;53339;51.378;0.094;2024-03-02T00:31:09;3.80;90.20
26254;DHT22;53339;51.378;0.094;2024-03-02T00:33:45;3.90;90.30
26254;DHT22;53339;51.378;0.094;2024-03-02T00:36:24;3.80;90.30
26254;DHT22;53339;51.378;0.094;2024-03-02T00:38:54;3.80;90.20
26254;DHT22;53339;51.378;0.094;2024-03-02T00:41:32;3.70;90.10
26254;DHT22;53339;51.378;0.094;2024-03-02T00:44:03;3.70;90.10
26254;DHT22;53339;51.378;0.094;2024-03-02T00:46:39;3.60;90.00
26254;DHT22;53339;51.378;0.094;2024-03-02T00:51:38;3.60;90.00
26254;DHT22;53339;51.378;0.094;2024-03-02T00:54:08;3.60;90.10
26254;DHT22;53339;51.378;0.094;2024-03-02T00:56:36;3.60;90.00
26254;DHT22;53339;51.378;0.094;2024-03-02T00:59:04;3.60;90.00
26254;DHT22;53339;51.378;0.094;2024-03-02T01:01:31;3.60;90.10
26254;DHT22;53339;51.378;0.094;2024-03-02T01:03:59;3.60;90.20
26254;DHT22;53339;51.378;0.094;2024-03-02T01:06:27;3.70;90.30
26254;DHT22;53339;51.378;0.094;2024-03-02T01:08:55;3.70;90.50
26254;DHT22;53339;51.378;0.094;2024-03-02T01:11:23;3.70;90.50
26254;DHT22;53339;51.378;0.094;2024-03-02T01:13:51;3.80;90.50
26254;DHT22;53339;51.378;0.094;2024-03-02T01:16:20;3.70;90.40
26254;DHT22;53339;51.378;0.094;2024-03-02T01:18:48;3.80;90.40
26254;DHT22;53339;51.378;0.094;2024-03-02T01:21:16;3.70;90.40
26254;DHT22;53339;51.378;0.094;2024-03-02T01:23:44;3.80;90.40
26254;DHT22;53339;51.378;0.094;2024-03-02T01:26:11;3.80;90.50
26254;DHT22;53339;51.378;0.094;2024-03-02T01:28:39;3.80;90.50
26254;DHT22;53339;51.378;0.094;2024-03-02T01:31:07;3.80;90.40
26254;DHT22;53339;51.378;0.094;2024-03-02T01:33:34;3.80;90.50
26254;DHT22;53339;51.378;0.094;2024-03-02T01:36:02;3.80;90.50
26254;DHT22;53339;51.378;0.094;2024-03-02T01:38:30;3.80;90.50
26254;DHT22;53339;51.378;0.094;2024-03-02T01:40:59;3.80;90.60
26254;DHT22;53339;51.378;0.094;2024-03-02T01:43:26;3.90;90.80
26254;DHT22;53339;51.378;0.094;2024-03-02T01:45:54;3.90;90.80
26254;DHT22;53339;51.378;0.094;2024-03-02T01:48:22;4.00;90.80
26254;DHT22;53339;51.378;0.094;2024-03-02T01:50:49;4.00;90.90
26254;DHT22;53339;51.378;0.094;2024-03-02T01:53:17;4.10;91.00
26254;DHT22;53339;51.378;0.094;2024-03-02T01:55:45;4.10;91.00
26254;DHT22;53339;51.378;0.094;2024-03-02T01:58:13;4.10;91.00
26254;DHT22;53339;51.378;0.094;2024-03-02T02:00:41;4.20;91.00
26254;DHT22;53339;51.378;0.094;2024-03-02T02:03:09;4.30;91.20
26254;DHT22;53339;51.378;0.094;2024-03-02T02:05:37;4.40;91.10
26254;DHT22;53339;51.378;0.094;2024-03-02T02:08:04;4.30;91.10
26254;DHT22;53339;51.378;0.094;2024-03-02T02:10:32;4.40;91.10
26254;DHT22;53339;51.378;0.094;2024-03-02T02:13:01;4.50;91.20
26254;DHT22;53339;51.378;0.094;2024-03-02T02:15:32;4.60;91.30
26254;DHT22;53339;51.378;0.094;2024-03-02T02:18:02;4.50;91.20
26254;DHT22;53339;51.378;0.094;2024-03-02T02:20:31;4.60;91.20
26254;DHT22;53339;51.378;0.094;2024-03-02T02:23:00;4.60;91.30
26254;DHT22;53339;51.378;0.094;2024-03-02T02:25:29;4.70;91.30
26254;DHT22;53339;51.378;0.094;2024-03-02T02:27:57;4.60;91.20
26254;DHT22;53339;51.378;0.094;2024-03-02T02:30:31;4.70;91.20
26254;DHT22;53339;51.378;0.094;2024-03-02T02:33:02;4.70;91.20
26254;DHT22;53339;51.378;0.094;2024-03-02T02:35:30;4.70;91.10
26254;DHT22;53339;51.378;0.094;2024-03-02T02:37:58;4.60;91.00
26254;DHT22;53339;51.378;0.094;2024-03-02T02:40:26;4.60;91.00
26254;DHT22;53339;51.378;0.094;2024-03-02T02:42:57;4.60;91.00
26254;DHT22;53339;51.378;0.094;2024-03-02T02:45:26;4.60;91.00
26254;DHT22;53339;51.378;0.094;2024-03-02T02:47:54;4.60;91.00
26254;DHT22;53339;51.378;0.094;2024-03-02T02:50:22;4.60;91.00
26254;DHT22;53339;51.378;0.094;2024-03-02T02:52:49;4.60;91.10
26254;DHT22;53339;51.378;0.094;2024-03-02T02:55:17;4.70;91.20
26254;DHT22;53339;51.378;0.094;2024-03-02T02:57:45;4.70;91.10
26254;DHT22;53339;51.378;0.094;2024-03-02T03:00:15;4.70;91.10
26254;DHT22;53339;51.378;0.094;2024-03-02T03:02:45;4.70;91.20
26254;DHT22;53339;51.378;0.094;2024-03-02T03:05:14;4.70;91.20
26254;DHT22;53339;51.378;0.094;2024-03-02T03:07:42;4.60;91.00
26254;DHT22;53339;51.378;0.094;2024-03-02T03:10:12;4.60;90.90
26254;DHT22;53339;51.378;0.094;2024-03-02T03:12:41;4.50;90.90
26254;DHT22;53339;51.378;0.094;2024-03-02T03:15:10;4.50;90.90
26254;DHT22;53339;51.378;0.094;2024-03-02T03:17:41;4.40;90.90
26254;DHT22;53339;51.378;0.094;2024-03-02T03:20:09;4.30;90.90
26254;DHT22;53339;51.378;0.094;2024-03-02T03:22:38;4.30;91.00
26254;DHT22;53339;51.378;0.094;2024-03-02T03:25:06;4.40;91.10
26254;DHT22;53339;51.378;0.094;2024-03-02T03:27:36;4.40;91.10
26254;DHT22;53339;51.378;0.094;2024-03-02T03:30:04;4.40;91.10
26254;DHT22;53339;51.378;0.094;2024-03-02T03:32:33;4.50;91.20
26254;DHT22;53339;51.378;0.094;2024-03-02T03:35:01;4.50;91.30
26254;DHT22;53339;51.378;0.094;2024-03-02T03:37:29;4.60;91.30
26254;DHT22;53339;51.378;0.094;2024-03-02T03:40:01;4.60;91.30
26254;DHT22;53339;51.378;0.094;2024-03-02T03:42:30;4.60;91.40
26254;DHT22;53339;51.378;0.094;2024-03-02T03:45:01;4.70;91.40
26254;DHT22;53339;51.378;0.094;2024-03-02T03:47:29;4.70;91.50
26254;DHT22;53339;51.378;0.094;2024-03-02T03:49:57;4.70;91.40
26254;DHT22;53339;51.378;0.094;2024-03-02T03:52:25;4.70;91.50
26254;DHT22;53339;51.378;0.094;2024-03-02T03:54:53;4.90;91.50
26254;DHT22;53339;51.378;0.094;2024-03-02T03:57:21;4.90;91.50
26254;DHT22;53339;51.378;0.094;2024-03-02T03:59:49;4.90;91.50
26254;DHT22;53339;51.378;0.094;2024-03-02T04:02:17;4.90;91.50
26254;DHT22;53339;51.378;0.094;2024-03-02T04:04:45;5.00;91.50
26254;DHT22;53339;51.378;0.094;2024-03-02T04:07:13;5.00;91.50
26254;DHT22;53339;51.378;0.094;2024-03-02T04:09:41;5.00;91.50
26254;DHT22;53339;51.378;0.094;2024-03-02T04:12:09;5.00;91.50
26254;DHT22;53339;51.378;0.094;2024-03-02T04:14:36;5.10;91.50
26254;DHT22;53339;51.378;0.094;2024-03-02T04:17:05;5.10;91.50
26254;DHT22;53339;51.378;0.094;2024-03-02T04:19:32;5.10;91.50
26254;DHT22;53339;51.378;0.094;2024-03-02T04:22:00;5.10;91.50
26254;DHT22;53339;51.378;0.094;2024-03-02T04:24:35;5.10;91.40
26254;DHT22;53339;51.378;0.094;2024-03-02T04:27:02;5.10;91.40
26254;DHT22;53339;51.378;0.094;2024-03-02T04:29:30;5.10;91.40
26254;DHT22;53339;51.378;0.094;2024-03-02T04:31:58;5.10;91.40
26254;DHT22;53339;51.378;0.094;2024-03-02T04:34:29;5.00;91.40
26254;DHT22;53339;51.378;0.094;2024-03-02T04:36:57;5.10;91.50
26254;DHT22;53339;51.378;0.094;2024-03-02T04:39:24;5.10;91.40
26254;DHT22;53339;51.378;0.094;2024-03-02T04:41:52;5.10;91.40
26254;DHT22;53339;51.378;0.094;2024-03-02T04:44:21;5.10;91.50
26254;DHT22;53339;51.378;0.094;2024-03-02T04:46:49;5.10;91.40
26254;DHT22;53339;51.378;0.094;2024-03-02T04:49:17;5.10;91.40
26254;DHT22;53339;51.378;0.094;2024-03-02T04:51:44;5.10;91.40
26254;DHT22;53339;51.378;0.094;2024-03-02T04:54:12;5.10;91.40
26254;DHT22;53339;51.378;0.094;2024-03-02T04:56:42;5.20;91.50
26254;DHT22;53339;51.378;0.094;2024-03-02T04:59:17;5.20;91.60
26254;DHT22;53339;51.378;0.094;2024-03-02T05:01:46;5.20;91.50
26254;DHT22;53339;51.378;0.094;2024-03-02T05:04:15;5.20;91.50
26254;DHT22;53339;51.378;0.094;2024-03-02T05:06:42;5.20;91.60
26254;DHT22;53339;51.378;0.094;2024-03-02T05:09:10;5.30;91.60
26254;DHT22;53339;51.378;0.094;2024-03-02T05:11:38;5.20;91.40
26254;DHT22;53339;51.378;0.094;2024-03-02T05:14:06;5.20;91.50
26254;DHT22;53339;51.378;0.094;2024-03-02T05:16:35;5.20;91.50
26254;DHT22;53339;51.378;0.094;2024-03-02T05:19:04;5.30;91.60
26254;DHT22;53339;51.378;0.094;2024-03-02T05:21:34;5.20;91.50
26254;DHT22;53339;51.378;0.094;2024-03-02T05:24:02;5.20;91.50
26254;DHT22;53339;51.378;0.094;2024-03-02T05:26:30;5.30;91.60
26254;DHT22;53339;51.378;0.094;2024-03-02T05:28:57;5.30;91.60
26254;DHT22;53339;51.378;0.094;2024-03-02T05:31:26;5.30;91.50
26254;DHT22;53339;51.378;0.094;2024-03-02T05:33:53;5.20;91.50
26254;DHT22;53339;51.378;0.094;2024-03-02T05:36:23;5.30;91.50
26254;DHT22;53339;51.378;0.094;2024-03-02T05:38:51;5.30;91.60
26254;DHT22;53339;51.378;0.094;2024-03-02T05:41:19;5.20;91.50
26254;DHT22;53339;51.378;0.094;2024-03-02T05:43:47;5.20;91.50
26254;DHT22;53339;51.378;0.094;2024-03-02T05:46:15;5.20;91.50
26254;DHT22;53339;51.378;0.094;2024-03-02T05:48:43;5.30;91.60
26254;DHT22;53339;51.378;0.094;2024-03-02T05:51:10;5.30;91.60
26254;DHT22;53339;51.378;0.094;2024-03-02T05:53:38;5.20;91.50
26254;DHT22;53339;51.378;0.094;2024-03-02T05:56:06;5.30;91.60
26254;DHT22;53339;51.378;0.094;2024-03-02T05:58:35;5.30;91.70
26254;DHT22;53339;51.378;0.094;2024-03-02T06:01:21;5.40;91.60
26254;DHT22;53339;51.378;0.094;2024-03-02T06:03:56;5.30;91.60
26254;DHT22;53339;51.378;0.094;2024-03-02T06:06:24;5.40;91.70
26254;DHT22;53339;51.378;0.094;2024-03-02T06:08:52;5.40;91.70
26254;DHT22;53339;51.378;0.094;2024-03-02T06:11:20;5.50;91.70
26254;DHT22;53339;51.378;0.094;2024-03-02T06:13:47;5.40;91.60
26254;DHT22;53339;51.378;0.094;2024-03-02T06:16:15;5.40;91.60
26254;DHT22;53339;51.378;0.094;2024-03-02T06:18:43;5.50;91.70
26254;DHT22;53339;51.378;0.094;2024-03-02T06:21:10;5.50;91.70
26254;DHT22;53339;51.378;0.094;2024-03-02T06:23:38;5.50;91.60
26254;DHT22;53339;51.378;0.094;2024-03-02T06:26:06;5.50;91.60
26254;DHT22;53339;51.378;0.094;2024-03-02T06:28:33;5.60;91.70
26254;DHT22;53339;51.378;0.094;2024-03-02T06:31:02;5.60;91.60
26254;DHT22;53339;51.378;0.094;2024-03-02T06:33:30;5.50;91.50
26254;DHT22;53339;51.378;0.094;2024-03-02T06:35:57;5.60;91.60
26254;DHT22;53339;51.378;0.094;2024-03-02T06:38:25;5.60;91.60
26254;DHT22;53339;51.378;0.094;2024-03-02T06:40:53;5.70;91.60
26254;DHT22;53339;51.378;0.094;2024-03-02T06:43:22;5.60;91.50
26254;DHT22;53339;51.378;0.094;2024-03-02T06:45:51;5.70;91.60
26254;DHT22;53339;51.378;0.094;2024-03-02T06:48:19;5.70;91.60
26254;DHT22;53339;51.378;0.094;2024-03-02T06:50:50;5.70;91.60
26254;DHT22;53339;51.378;0.094;2024-03-02T06:53:19;5.60;91.40
26254;DHT22;53339;51.378;0.094;2024-03-02T06:55:47;5.60;91.40
26254;DHT22;53339;51.378;0.094;2024-03-02T06:58:15;5.60;91.40
26254;DHT22;53339;51.378;0.094;2024-03-02T07:00:43;5.60;91.40
26254;DHT22;53339;51.378;0.094;2024-03-02T07:03:15;5.50;91.30
26254;DHT22;53339;51.378;0.094;2024-03-02T07:05:43;5.40;91.20
26254;DHT22;53339;51.378;0.094;2024-03-02T07:08:11;5.40;91.20
26254;DHT22;53339;51.378;0.094;2024-03-02T07:10:38;5.40;91.20
26254;DHT22;53339;51.378;0.094;2024-03-02T07:13:06;5.30;91.20
26254;DHT22;53339;51.378;0.094;2024-03-02T07:15:34;5.30;91.10
26254;DHT22;53339;51.378;0.094;2024-03-02T07:18:28;5.20;91.20
26254;DHT22;53339;51.378;0.094;2024-03-02T07:20:59;5.30;91.30
26254;DHT22;53339;51.378;0.094;2024-03-02T07:23:28;5.40;91.30
26254;DHT22;53339;51.378;0.094;2024-03-02T07:25:56;5.30;91.30
26254;DHT22;53339;51.378;0.094;2024-03-02T07:28:27;5.40;91.30
26254;DHT22;53339;51.378;0.094;2024-03-02T07:30:59;5.40;91.40
26254;DHT22;53339;51.378;0.094;2024-03-02T07:33:27;5.30;91.30
26254;DHT22;53339;51.378;0.094;2024-03-02T07:35:56;5.30;91.20
26254;DHT22;53339;51.378;0.094;2024-03-02T07:38:24;5.30;91.20
26254;DHT22;53339;51.378;0.094;2024-03-02T07:40:51;5.30;91.30
26254;DHT22;53339;51.378;0.094;2024-03-02T07:43:23;5.40;91.40
26254;DHT22;53339;51.378;0.094;2024-03-02T07:45:51;5.40;91.40
26254;DHT22;53339;51.378;0.094;2024-03-02T07:48:19;5.40;91.40
26254;DHT22;53339;51.378;0.094;2024-03-02T07:50:46;5.50;91.50
26254;DHT22;53339;51.378;0.094;2024-03-02T07:53:14;5.60;91.50
26254;DHT22;53339;51.378;0.094;2024-03-02T07:55:42;5.60;91.40
26254;DHT22;53339;51.378;0.094;2024-03-02T07:58:10;5.70;91.50
26254;DHT22;53339;51.378;0.094;2024-03-02T08:00:39;5.70;91.60
26254;DHT22;53339;51.378;0.094;2024-03-02T08:03:08;5.80;91.60
26254;DHT22;53339;51.378;0.094;2024-03-02T08:05:40;5.80;91.50
26254;DHT22;53339;51.378;0.094;2024-03-02T08:08:07;5.80;91.50
26254;DHT22;53339;51.378;0.094;2024-03-02T08:10:35;5.80;91.50
26254;DHT22;53339;51.378;0.094;2024-03-02T08:13:03;5.80;91.50
26254;DHT22;53339;51.378;0.094;2024-03-02T08:15:31;5.70;91.30
26254;DHT22;53339;51.378;0.094;2024-03-02T08:17:59;5.60;91.20
26254;DHT22;53339;51.378;0.094;2024-03-02T08:20:27;5.60;91.30
26254;DHT22;53339;51.378;0.094;2024-03-02T08:22:54;5.70;91.40
26254;DHT22;53339;51.378;0.094;2024-03-02T08:25:22;5.70;91.40
26254;DHT22;53339;51.378;0.094;2024-03-02T08:27:50;5.70;91.50
26254;DHT22;53339;51.378;0.094;2024-03-02T08:30:18;5.80;91.50
26254;DHT22;53339;51.378;0.094;2024-03-02T08:32:46;5.90;91.60
26254;DHT22;53339;51.378;0.094;2024-03-02T08:35:17;5.90;91.60
26254;DHT22;53339;51.378;0.094;2024-03-02T08:37:45;5.80;91.50
26254;DHT22;53339;51.378;0.094;2024-03-02T08:40:14;5.80;91.40
26254;DHT22;53339;51.378;0.094;2024-03-02T08:42:44;5.80;91.40
26254;DHT22;53339;51.378;0.094;2024-03-02T08:45:12;5.70;91.30
26254;DHT22;53339;51.378;0.094;2024-03-02T08:47:39;5.70;91.30
26254;DHT22;53339;51.378;0.094;2024-03-02T08:50:07;5.80;91.40
26254;DHT22;53339;51.378;0.094;2024-03-02T08:52:36;5.90;91.60
26254;DHT22;53339;51.378;0.094;2024-03-02T08:55:04;5.90;91.60
26254;DHT22;53339;51.378;0.094;2024-03-02T08:57:33;5.90;91.60
26254;DHT22;53339;51.378;0.094;2024-03-02T09:00:01;6.00;91.60
26254;DHT22;53339;51.378;0.094;2024-03-02T09:02:29;6.10;91.80
26254;DHT22;53339;51.378;0.094;2024-03-02T09:05:01;6.10;91.70
26254;DHT22;53339;51.378;0.094;2024-03-02T09:07:32;6.10;91.70
26254;DHT22;53339;51.378;0.094;2024-03-02T09:09:59;6.10;91.70
26254;DHT22;53339;51.378;0.094;2024-03-02T09:12:27;6.10;91.70
26254;DHT22;53339;51.378;0.094;2024-03-02T09:14:55;6.20;91.70
26254;DHT22;53339;51.378;0.094;2024-03-02T09:17:23;6.10;91.60
26254;DHT22;53339;51.378;0.094;2024-03-02T09:19:50;6.20;91.70
26254;DHT22;53339;51.378;0.094;2024-03-02T09:22:21;6.20;91.60
26254;DHT22;53339;51.378;0.094;2024-03-02T09:24:48;6.20;91.60
26254;DHT22;53339;51.378;0.094;2024-03-02T09:27:16;6.10;91.50
26254;DHT22;53339;51.378;0.094;2024-03-02T09:29:44;6.00;91.40
26254;DHT22;53339;51.378;0.094;2024-03-02T09:32:13;6.00;91.50
26254;DHT22;53339;51.378;0.094;2024-03-02T09:34:41;6.00;91.50
26254;DHT22;53339;51.378;0.094;2024-03-02T09:37:09;5.90;91.40
26254;DHT22;53339;51.378;0.094;2024-03-02T09:39:37;5.90;91.40
26254;DHT22;53339;51.378;0.094;2024-03-02T09:42:06;6.00;91.60
26254;DHT22;53339;51.378;0.094;2024-03-02T09:44:35;6.10;91.70
26254;DHT22;53339;51.378;0.094;2024-03-02T09:47:03;6.20;91.70
26254;DHT22;53339;51.378;0.094;2024-03-02T09:49:31;6.20;91.70
26254;DHT22;53339;51.378;0.094;2024-03-02T09:51:59;6.30;91.80
26254;DHT22;53339;51.378;0.094;2024-03-02T09:54:27;6.40;91.80
26254;DHT22;53339;51.378;0.094;2024-03-02T09:56:58;6.40;91.70
26254;DHT22;53339;51.378;0.094;2024-03-02T09:59:26;6.30;91.60
26254;DHT22;53339;51.378;0.094;2024-03-02T10:01:59;6.20;91.60
26254;DHT22;53339;51.378;0.094;2024-03-02T10:04:29;6.20;91.60
26254;DHT22;53339;51.378;0.094;2024-03-02T10:07:15;6.20;91.50
26254;DHT22;53339;51.378;0.094;2024-03-02T10:09:48;6.00;91.40
26254;DHT22;53339;51.378;0.094;2024-03-02T10:12:19;6.00;91.30
26254;DHT22;53339;51.378;0.094;2024-03-02T10:15:03;5.90;91.30
26254;DHT22;53339;51.378;0.094;2024-03-02T10:17:35;5.80;91.20
26254;DHT22;53339;51.378;0.094;2024-03-02T10:20:32;5.70;91.20
26254;DHT22;53339;51.378;0.094;2024-03-02T10:23:27;5.80;91.40
26254;DHT22;53339;51.378;0.094;2024-03-02T10:25:54;5.80;91.40
26254;DHT22;53339;51.378;0.094;2024-03-02T10:28:24;5.70;91.30
26254;DHT22;53339;51.378;0.094;2024-03-02T10:30:52;5.70;91.30
26254;DHT22;53339;51.378;0.094;2024-03-02T10:33:21;5.70;91.30
26254;DHT22;53339;51.378;0.094;2024-03-02T10:38:59;5.70;91.40
26254;DHT22;53339;51.378;0.094;2024-03-02T10:41:28;5.70;91.60
26254;DHT22;53339;51.378;0.094;2024-03-02T10:43:58;5.90;91.80
26254;DHT22;53339;51.378;0.094;2024-03-02T10:46:29;6.10;91.90
26254;DHT22;53339;51.378;0.094;2024-03-02T10:48:59;6.30;92.00
26254;DHT22;53339;51.378;0.094;2024-03-02T10:51:32;6.40;92.00
26254;DHT22;53339;51.378;0.094;2024-03-02T10:54:04;6.60;92.20
26254;DHT22;53339;51.378;0.094;2024-03-02T10:56:44;6.80;92.30
26254;DHT22;53339;51.378;0.094;2024-03-02T10:59:34;6.60;91.50
26254;DHT22;53339;51.378;0.094;2024-03-02T11:02:04;6.20;90.70
26254;DHT22;53339;51.378;0.094;2024-03-02T11:04:34;6.00;90.40
26254;DHT22;53339;51.378;0.094;2024-03-02T11:07:12;5.90;90.50
26254;DHT22;53339;51.378;0.094;2024-03-02T11:09:56;5.90;90.70
26254;DHT22;53339;51.378;0.094;2024-03-02T11:12:29;5.90;90.90
26254;DHT22;53339;51.378;0.094;2024-03-02T11:15:00;6.00;91.10
26254;DHT22;53339;51.378;0.094;2024-03-02T11:17:28;6.10;91.20
26254;DHT22;53339;51.378;0.094;2024-03-02T11:19:57;6.10;91.20
26254;DHT22;53339;51.378;0.094;2024-03-02T11:22:25;6.10;91.10
26254;DHT22;53339;51.378;0.094;2024-03-02T11:24:53;6.10;91.00
26254;DHT22;53339;51.378;0.094;2024-03-02T11:33:02;5.70;90.70
26254;DHT22;53339;51.378;0.094;2024-03-02T11:35:38;5.70;90.70
26254;DHT22;53339;51.378;0.094;2024-03-02T11:38:10;5.60;90.80
26254;DHT22;53339;51.378;0.094;2024-03-02T11:40:42;5.60;90.70
26254;DHT22;53339;51.378;0.094;2024-03-02T11:43:10;5.60;90.90
26254;DHT22;53339;51.378;0.094;2024-03-02T11:45:42;5.60;91.00
26254;DHT22;53339;51.378;0.094;2024-03-02T11:48:14;5.70;91.10
26254;DHT22;53339;51.378;0.094;2024-03-02T11:50:50;5.80;91.30
26254;DHT22;53339;51.378;0.094;2024-03-02T11:53:20;5.90;91.50
26254;DHT22;53339;51.378;0.094;2024-03-02T11:55:49;6.10;91.60
26254;DHT22;53339;51.378;0.094;2024-03-02T11:58:18;6.20;91.70
26254;DHT22;53339;51.378;0.094;2024-03-02T12:00:51;6.30;91.60
26254;DHT22;53339;51.378;0.094;2024-03-02T12:03:21;6.30;91.60
26254;DHT22;53339;51.378;0.094;2024-03-02T12:05:50;6.40;91.60
26254;DHT22;53339;51.378;0.094;2024-03-02T12:08:18;6.50;91.60
26254;DHT22;53339;51.378;0.094;2024-03-02T12:11:00;6.60;91.60
26254;DHT22;53339;51.378;0.094;2024-03-02T12:13:30;6.70;91.70
26254;DHT22;53339;51.378;0.094;2024-03-02T12:15:58;6.90;91.80
26254;DHT22;53339;51.378;0.094;2024-03-02T12:18:26;7.10;91.80
26254;DHT22;53339;51.378;0.094;2024-03-02T12:20:55;7.10;91.60
26254;DHT22;53339;51.378;0.094;2024-03-02T12:23:26;7.10;91.50
26254;DHT22;53339;51.378;0.094;2024-03-02T12:25:57;7.20;91.50
26254;DHT22;53339;51.378;0.094;2024-03-02T12:28:29;7.20;91.50
26254;DHT22;53339;51.378;0.094;2024-03-02T12:30:58;7.30;91.20
26254;DHT22;53339;51.378;0.094;2024-03-02T12:33:26;7.40;91.30
26254;DHT22;53339;51.378;0.094;2024-03-02T12:35:57;7.60;91.40
26254;DHT22;53339;51.378;0.094;2024-03-02T12:38:26;7.70;91.30
26254;DHT22;53339;51.378;0.094;2024-03-02T12:40:53;7.70;91.10
26254;DHT22;53339;51.378;0.094;2024-03-02T12:43:21;7.70;91.00
26254;DHT22;53339;51.378;0.094;2024-03-02T12:45:51;7.70;91.00
26254;DHT22;53339;51.378;0.094;2024-03-02T12:48:18;7.70;91.00
26254;DHT22;53339;51.378;0.094;2024-03-02T12:50:52;7.80;90.80
26254;DHT22;53339;51.378;0.094;2024-03-02T12:53:21;7.80;90.80
26254;DHT22;53339;51.378;0.094;2024-03-02T12:55:49;7.90;90.70
26254;DHT22;53339;51.378;0.094;2024-03-02T12:58:19;8.10;90.60
26254;DHT22;53339;51.378;0.094;2024-03-02T13:00:47;8.20;90.30
26254;DHT22;53339;51.378;0.094;2024-03-02T13:03:17;8.20;90.00
26254;DHT22;53339;51.378;0.094;2024-03-02T13:05:50;8.20;89.80
26254;DHT22;53339;51.378;0.094;2024-03-02T13:08:20;8.20;89.40
26254;DHT22;53339;51.378;0.094;2024-03-02T13:10:48;8.20;89.10
26254;DHT22;53339;51.378;0.094;2024-03-02T13:13:16;8.20;89.00
26254;DHT22;53339;51.378;0.094;2024-03-02T13:15:45;8.30;89.30
26254;DHT22;53339;51.378;0.094;2024-03-02T13:18:13;8.30;89.30
26254;DHT22;53339;51.378;0.094;2024-03-02T13:20:43;8.30;89.10
26254;DHT22;53339;51.378;0.094;2024-03-02T13:23:11;8.00;88.90
26254;DHT22;53339;51.378;0.094;2024-03-02T13:25:40;7.90;89.10
26254;DHT22;53339;51.378;0.094;2024-03-02T13:28:08;7.90;89.40
26254;DHT22;53339;51.378;0.094;2024-03-02T13:30:36;7.90;89.60
26254;DHT22;53339;51.378;0.094;2024-03-02T13:33:05;7.70;89.30
26254;DHT22;53339;51.378;0.094;2024-03-02T13:35:32;7.60;89.30
26254;DHT22;53339;51.378;0.094;2024-03-02T13:38:00;7.60;89.30
26254;DHT22;53339;51.378;0.094;2024-03-02T13:40:28;7.50;89.60
26254;DHT22;53339;51.378;0.094;2024-03-02T13:42:56;7.60;89.70
26254;DHT22;53339;51.378;0.094;2024-03-02T13:45:24;7.60;90.00
26254;DHT22;53339;51.378;0.094;2024-03-02T13:47:52;7.80;90.10
26254;DHT22;53339;51.378;0.094;2024-03-02T13:50:23;7.90;89.90
26254;DHT22;53339;51.378;0.094;2024-03-02T13:52:51;8.10;89.80
26254;DHT22;53339;51.378;0.094;2024-03-02T13:55:19;8.30;89.00
26254;DHT22;53339;51.378;0.094;2024-03-02T13:57:47;8.40;88.40
26254;DHT22;53339;51.378;0.094;2024-03-02T14:00:18;8.50;87.70
26254;DHT22;53339;51.378;0.094;2024-03-02T14:02:46;8.60;87.50
26254;DHT22;53339;51.378;0.094;2024-03-02T14:05:14;8.60;88.00
26254;DHT22;53339;51.378;0.094;2024-03-02T14:07:42;8.70;88.30
26254;DHT22;53339;51.378;0.094;2024-03-02T14:10:11;8.80;87.90
26254;DHT22;53339;51.378;0.094;2024-03-02T14:12:39;8.90;87.60
26254;DHT22;53339;51.378;0.094;2024-03-02T14:15:07;8.90;87.80
26254;DHT22;53339;51.378;0.094;2024-03-02T14:17:34;9.10;88.30
26254;DHT22;53339;51.378;0.094;2024-03-02T14:20:02;9.20;88.50
26254;DHT22;53339;51.378;0.094;2024-03-02T14:22:32;9.20;87.40
26254;DHT22;53339;51.378;0.094;2024-03-02T14:25:01;9.20;84.90
26254;DHT22;53339;51.378;0.094;2024-03-02T14:27:29;9.10;84.20
26254;DHT22;53339;51.378;0.094;2024-03-02T14:30:05;9.30;85.40
26254;DHT22;53339;51.378;0.094;2024-03-02T14:32:32;9.50;84.70
26254;DHT22;53339;51.378;0.094;2024-03-02T14:35:00;9.60;84.60
26254;DHT22;53339;51.378;0.094;2024-03-02T14:37:28;9.70;84.50
26254;DHT22;53339;51.378;0.094;2024-03-02T14:39:56;9.80;83.10
26254;DHT22;53339;51.378;0.094;2024-03-02T14:42:24;10.30;84.00
26254;DHT22;53339;51.378;0.094;2024-03-02T14:44:52;11.10;82.60
26254;DHT22;53339;51.378;0.094;2024-03-02T14:47:22;11.60;83.70
26254;DHT22;53339;51.378;0.094;2024-03-02T14:49:51;12.50;83.10
26254;DHT22;53339;51.378;0.094;2024-03-02T14:52:18;13.30;81.50
26254;DHT22;53339;51.378;0.094;2024-03-02T14:54:47;14.00;75.60
26254;DHT22;53339;51.378;0.094;2024-03-02T14:57:15;14.10;70.40
26254;DHT22;53339;51.378;0.094;2024-03-02T14:59:42;14.20;75.80
26254;DHT22;53339;51.378;0.094;2024-03-02T15:02:11;14.60;74.90
26254;DHT22;53339;51.378;0.094;2024-03-02T15:04:38;15.00;79.00
26254;DHT22;53339;51.378;0.094;2024-03-02T15:07:06;15.60;70.80
26254;DHT22;53339;51.378;0.094;2024-03-02T15:09:34;15.90;72.40
26254;DHT22;53339;51.378;0.094;2024-03-02T15:12:04;15.70;73.50
26254;DHT22;53339;51.378;0.094;2024-03-02T15:14:32;15.20;78.20
26254;DHT22;53339;51.378;0.094;2024-03-02T15:17:00;15.20;76.50
26254;DHT22;53339;51.378;0.094;2024-03-02T15:19:28;15.20;70.70
26254;DHT22;53339;51.378;0.094;2024-03-02T15:21:56;14.90;73.00
26254;DHT22;53339;51.378;0.094;2024-03-02T15:24:23;14.70;72.10
26254;DHT22;53339;51.378;0.094;2024-03-02T15:26:52;14.90;76.30
26254;DHT22;53339;51.378;0.094;2024-03-02T15:29:21;14.70;78.10
26254;DHT22;53339;51.378;0.094;2024-03-02T15:31:52;14.30;76.00
26254;DHT22;53339;51.378;0.094;2024-03-02T15:34:19;13.40;72.30
26254;DHT22;53339;51.378;0.094;2024-03-02T15:36:48;12.60;69.50
26254;DHT22;53339;51.378;0.094;2024-03-02T15:39:16;12.40;74.40
26254;DHT22;53339;51.378;0.094;2024-03-02T15:41:45;12.40;76.90
26254;DHT22;53339;51.378;0.094;2024-03-02T15:44:13;12.20;76.00
26254;DHT22;53339;51.378;0.094;2024-03-02T15:46:41;12.20;78.20
26254;DHT22;53339;51.378;0.094;2024-03-02T15:49:13;12.80;77.10
26254;DHT22;53339;51.378;0.094;2024-03-02T15:51:42;13.70;75.90
26254;DHT22;53339;51.378;0.094;2024-03-02T15:54:12;14.30;74.10
26254;DHT22;53339;51.378;0.094;2024-03-02T15:56:39;14.00;71.20
26254;DHT22;53339;51.378;0.094;2024-03-02T15:59:07;13.20;72.70
26254;DHT22;53339;51.378;0.094;2024-03-02T16:01:37;12.50;75.30
26254;DHT22;53339;51.378;0.094;2024-03-02T16:04:04;11.90;76.30
26254;DHT22;53339;51.378;0.094;2024-03-02T16:06:32;11.60;75.80
26254;DHT22;53339;51.378;0.094;2024-03-02T16:09:00;11.20;75.00